createdAt,value
2023-03-30T00:01:18.141Z,14.35
2023-03-30T00:03:47.310Z,14.34
2023-03-30T00:06:22.050Z,14.31
2023-03-30T00:08:53.587Z,14.31
2023-03-30T00:11:23.390Z,14.28
2023-03-30T00:13:51.598Z,14.24
2023-03-30T00:16:20.099Z,14.18
2023-03-30T00:18:47.527Z,14.15
2023-03-30T00:21:18.377Z,14.11
2023-03-30T00:23:49.116Z,14.08
2023-03-30T00:26:17.628Z,14.08
2023-03-30T00:28:46.184Z,14.03
2023-03-30T00:31:13.461Z,14.00
2023-03-30T00:33:46.595Z,13.96
2023-03-30T00:36:16.189Z,13.94
2023-03-30T00:38:44.123Z,13.92
2023-03-30T00:41:11.510Z,13.93
2023-03-30T00:44:04.344Z,13.95
2023-03-30T00:46:32.206Z,13.98
2023-03-30T00:49:10.647Z,14.02
2023-03-30T00:51:41.716Z,14.07
2023-03-30T00:54:16.713Z,14.09
2023-03-30T00:56:43.969Z,14.12
2023-03-30T00:59:11.570Z,14.15
2023-03-30T01:01:41.993Z,14.17
2023-03-30T01:04:29.788Z,14.20
2023-03-30T01:06:58.051Z,14.23
2023-03-30T01:09:25.688Z,14.25
2023-03-30T01:11:52.922Z,14.30
2023-03-30T01:14:20.255Z,14.34
2023-03-30T01:17:25.702Z,14.45
2023-03-30T01:20:29.707Z,14.53
2023-03-30T01:23:47.091Z,14.61
2023-03-30T01:26:39.584Z,14.64
2023-03-30T01:29:38.249Z,14.67
2023-03-30T01:32:37.155Z,14.69
2023-03-30T01:35:42.720Z,14.69
2023-03-30T01:38:52.690Z,14.69
2023-03-30T01:41:49.391Z,14.62
2023-03-30T01:44:55.051Z,14.53
2023-03-30T01:47:51.744Z,14.43
2023-03-30T01:50:43.767Z,14.33
2023-03-30T01:53:18.364Z,14.25
2023-03-30T01:56:30.374Z,14.16
2023-03-30T01:59:29.653Z,14.09
2023-03-30T02:02:02.665Z,14.01
2023-03-30T02:04:34.124Z,13.98
2023-03-30T02:07:15.632Z,13.98
2023-03-30T02:09:46.602Z,13.98
2023-03-30T02:12:14.166Z,13.96
2023-03-30T02:14:42.585Z,13.98
2023-03-30T02:17:21.524Z,13.99
2023-03-30T02:19:49.314Z,13.99
2023-03-30T02:22:19.035Z,13.99
2023-03-30T02:24:49.526Z,13.98
2023-03-30T02:27:17.250Z,14.02
2023-03-30T02:29:46.088Z,14.05
2023-03-30T02:32:27.849Z,14.09
2023-03-30T02:35:19.386Z,14.15
2023-03-30T02:38:28.185Z,14.20
2023-03-30T02:41:16.740Z,14.24
2023-03-30T02:44:26.056Z,14.29
2023-03-30T02:47:17.849Z,14.33
2023-03-30T02:50:27.159Z,14.36
2023-03-30T02:53:10.566Z,14.38
2023-03-30T02:56:03.874Z,14.40
2023-03-30T02:59:07.719Z,14.42
2023-03-30T03:01:46.069Z,14.43
2023-03-30T03:04:15.697Z,14.45
2023-03-30T03:06:43.437Z,14.47
2023-03-30T03:09:10.604Z,14.49
2023-03-30T03:11:37.684Z,14.50
2023-03-30T03:14:05.169Z,14.52
2023-03-30T03:16:32.414Z,14.53
2023-03-30T03:18:59.447Z,14.56
2023-03-30T03:21:26.376Z,14.56
2023-03-30T03:23:53.446Z,14.59
2023-03-30T03:26:20.716Z,14.63
2023-03-30T03:28:47.664Z,14.69
2023-03-30T03:31:14.665Z,14.77
2023-03-30T03:33:41.724Z,14.81
2023-03-30T03:36:11.127Z,14.84
2023-03-30T03:38:38.747Z,14.92
2023-03-30T03:41:06.909Z,14.96
2023-03-30T03:43:34.040Z,14.98
2023-03-30T03:46:01.092Z,14.99
2023-03-30T03:48:28.065Z,15.01
2023-03-30T03:50:58.351Z,15.03
2023-03-30T03:53:28.350Z,15.02
2023-03-30T03:55:56.052Z,15.04
2023-03-30T03:58:24.203Z,15.07
2023-03-30T04:00:52.033Z,15.10
2023-03-30T04:03:19.215Z,15.12
2023-03-30T04:05:46.256Z,15.12
2023-03-30T04:08:13.467Z,15.12
2023-03-30T04:10:41.793Z,15.09
2023-03-30T04:13:08.830Z,15.10
2023-03-30T04:15:36.279Z,15.06
2023-03-30T04:18:05.702Z,15.03
2023-03-30T04:20:33.557Z,14.96
2023-03-30T04:23:03.692Z,14.89
2023-03-30T04:25:31.090Z,14.84
2023-03-30T04:27:58.174Z,14.86
2023-03-30T04:30:25.284Z,14.77
2023-03-30T04:33:03.063Z,14.75
2023-03-30T04:35:32.766Z,14.74
2023-03-30T04:38:02.174Z,14.72
2023-03-30T04:40:30.387Z,14.70
2023-03-30T04:43:03.614Z,14.69
2023-03-30T04:45:31.641Z,14.72
2023-03-30T04:47:58.896Z,14.73
2023-03-30T04:50:26.243Z,14.75
2023-03-30T04:52:53.551Z,14.77
2023-03-30T04:55:20.636Z,14.79
2023-03-30T04:57:47.751Z,14.78
2023-03-30T05:00:15.902Z,14.75
2023-03-30T05:02:43.079Z,14.78
2023-03-30T05:05:10.509Z,14.76
2023-03-30T05:07:37.680Z,14.78
2023-03-30T05:10:05.417Z,14.78
2023-03-30T05:12:32.457Z,14.79
2023-03-30T05:14:59.513Z,14.83
2023-03-30T05:17:26.788Z,14.85
2023-03-30T05:19:54.700Z,14.89
2023-03-30T05:22:21.808Z,14.92
2023-03-30T05:24:49.677Z,14.96
2023-03-30T05:27:16.653Z,15.00
2023-03-30T05:29:44.845Z,14.99
2023-03-30T05:32:12.094Z,15.05
2023-03-30T05:34:39.140Z,15.05
2023-03-30T05:37:06.229Z,15.09
2023-03-30T05:39:33.244Z,15.13
2023-03-30T05:42:01.652Z,15.11
2023-03-30T05:44:28.821Z,15.12
2023-03-30T05:46:55.979Z,15.09
2023-03-30T05:49:23.165Z,15.07
2023-03-30T05:51:51.359Z,15.00
2023-03-30T05:54:18.557Z,14.96
2023-03-30T05:56:45.746Z,14.87
2023-03-30T05:59:13.124Z,14.79
2023-03-30T06:01:40.290Z,14.70
2023-03-30T06:04:08.601Z,14.59
2023-03-30T06:06:35.838Z,14.52
2023-03-30T06:09:04.480Z,14.43
2023-03-30T06:11:32.122Z,14.33
2023-03-30T06:13:59.525Z,14.24
2023-03-30T06:16:26.694Z,14.17
2023-03-30T06:18:53.777Z,14.03
2023-03-30T06:21:20.922Z,13.92
2023-03-30T06:23:49.073Z,13.82
2023-03-30T06:26:16.456Z,13.73
2023-03-30T06:28:43.591Z,13.53
2023-03-30T06:31:12.115Z,13.49
2023-03-30T06:33:41.751Z,13.43
2023-03-30T06:36:14.913Z,13.43
2023-03-30T06:38:45.452Z,13.44
2023-03-30T06:41:12.942Z,13.50
2023-03-30T06:43:41.221Z,13.58
2023-03-30T06:46:09.463Z,13.65
2023-03-30T06:48:36.831Z,13.64
2023-03-30T06:51:04.430Z,13.68
2023-03-30T06:53:31.803Z,13.72
2023-03-30T06:55:59.524Z,13.75
2023-03-30T06:58:27.888Z,13.84
2023-03-30T07:00:55.363Z,13.95
2023-03-30T07:03:23.107Z,13.92
2023-03-30T07:05:52.512Z,13.98
2023-03-30T07:08:20.458Z,14.02
2023-03-30T07:10:48.549Z,14.02
2023-03-30T07:13:16.992Z,14.07
2023-03-30T07:15:46.038Z,14.09
2023-03-30T07:18:13.999Z,14.11
2023-03-30T07:20:41.145Z,14.21
2023-03-30T07:23:08.946Z,14.26
2023-03-30T07:25:36.110Z,14.31
2023-03-30T07:28:06.264Z,14.36
2023-03-30T07:30:34.715Z,14.35
2023-03-30T07:33:02.031Z,14.40
2023-03-30T07:35:29.283Z,14.46
2023-03-30T07:38:02.718Z,14.53
2023-03-30T07:40:30.674Z,14.58
2023-03-30T07:42:57.767Z,14.71
2023-03-30T07:45:24.938Z,14.82
2023-03-30T07:47:51.976Z,14.91
2023-03-30T07:50:19.134Z,15.00
2023-03-30T07:52:46.171Z,15.08
2023-03-30T07:55:13.801Z,15.18
2023-03-30T07:57:41.100Z,15.39
2023-03-30T08:00:12.915Z,15.60
2023-03-30T08:02:40.593Z,15.76
2023-03-30T08:05:08.825Z,15.83
2023-03-30T08:07:37.153Z,15.77
2023-03-30T08:10:05.236Z,15.85
2023-03-30T08:12:32.584Z,15.86
2023-03-30T08:15:00.841Z,15.90
2023-03-30T08:17:28.190Z,15.97
2023-03-30T08:19:56.395Z,16.49
2023-03-30T08:22:23.592Z,16.62
2023-03-30T08:24:50.702Z,16.68
2023-03-30T08:27:17.765Z,16.47
2023-03-30T08:29:44.920Z,16.17
2023-03-30T08:32:11.974Z,16.02
2023-03-30T08:34:39.356Z,16.05
2023-03-30T08:37:06.757Z,16.42
2023-03-30T08:39:34.103Z,16.57
2023-03-30T08:42:59.130Z,16.54
2023-03-30T08:45:34.382Z,16.43
2023-03-30T08:48:02.269Z,16.53
2023-03-30T08:50:32.943Z,16.65
2023-03-30T08:53:00.439Z,16.73
2023-03-30T08:55:40.434Z,16.95
2023-03-30T08:58:53.659Z,17.10
2023-03-30T09:01:44.329Z,17.21
2023-03-30T09:04:47.354Z,17.24
2023-03-30T09:07:24.161Z,17.27
2023-03-30T09:09:52.546Z,17.47
2023-03-30T09:12:45.810Z,17.57
2023-03-30T09:15:59.607Z,17.87
2023-03-30T09:18:33.080Z,17.83
2023-03-30T09:21:06.321Z,17.58
2023-03-30T09:23:34.458Z,17.40
2023-03-30T09:26:49.630Z,17.32
2023-03-30T09:29:31.093Z,17.39
2023-03-30T09:32:06.029Z,17.54
2023-03-30T09:34:54.424Z,17.49
2023-03-30T09:37:23.004Z,17.63
2023-03-30T09:39:51.125Z,17.46
2023-03-30T09:42:47.670Z,17.58
2023-03-30T09:45:21.637Z,17.94
2023-03-30T09:47:48.954Z,18.05
2023-03-30T09:50:24.948Z,18.24
2023-03-30T09:53:01.902Z,18.40
2023-03-30T09:55:35.880Z,18.51
2023-03-30T09:58:21.091Z,18.66
2023-03-30T10:01:07.107Z,19.19
2023-03-30T10:03:36.595Z,19.23
2023-03-30T10:06:09.614Z,18.94
2023-03-30T10:08:55.373Z,18.95
2023-03-30T10:11:49.314Z,18.99
2023-03-30T10:14:36.037Z,18.95
2023-03-30T10:17:05.440Z,18.95
2023-03-30T10:19:37.992Z,18.76
2023-03-30T10:22:22.703Z,18.65
2023-03-30T10:24:56.886Z,18.89
2023-03-30T10:27:36.117Z,18.88
2023-03-30T10:30:12.505Z,19.03
2023-03-30T10:32:44.478Z,19.21
2023-03-30T10:35:11.643Z,19.08
2023-03-30T10:37:43.198Z,19.02
2023-03-30T10:40:32.548Z,19.19
2023-03-30T10:43:01.786Z,19.12
2023-03-30T10:45:39.522Z,19.19
2023-03-30T10:48:38.012Z,19.32
2023-03-30T10:51:43.137Z,19.38
2023-03-30T10:54:47.275Z,19.43
2023-03-30T10:57:18.639Z,19.58
2023-03-30T11:00:10.128Z,19.58
2023-03-30T11:03:20.034Z,19.31
2023-03-30T11:05:52.977Z,19.23
2023-03-30T11:08:35.817Z,19.09
2023-03-30T11:11:05.547Z,19.00
2023-03-30T11:13:42.624Z,18.98
2023-03-30T11:16:17.873Z,19.04
2023-03-30T11:19:05.450Z,18.97
2023-03-30T11:22:16.340Z,18.33
2023-03-30T11:24:46.570Z,17.98
2023-03-30T11:27:51.821Z,17.96
2023-03-30T11:30:29.945Z,17.80
2023-03-30T11:33:24.226Z,17.51
2023-03-30T11:36:11.288Z,17.38
2023-03-30T11:38:43.234Z,17.41
2023-03-30T11:41:15.945Z,17.30
2023-03-30T11:43:43.738Z,17.43
2023-03-30T11:46:24.814Z,17.51
2023-03-30T11:49:34.189Z,17.62
2023-03-30T11:52:41.901Z,17.79
2023-03-30T11:55:53.360Z,18.09
2023-03-30T11:58:35.060Z,18.34
2023-03-30T12:01:43.972Z,18.13
2023-03-30T12:04:16.970Z,18.47
2023-03-30T12:07:02.360Z,19.13
2023-03-30T12:09:57.456Z,19.48
2023-03-30T12:12:39.132Z,19.51
2023-03-30T12:15:14.946Z,19.55
2023-03-30T12:17:51.151Z,19.59
2023-03-30T12:20:47.973Z,19.81
2023-03-30T12:23:41.913Z,19.98
2023-03-30T12:26:25.395Z,19.88
2023-03-30T12:31:56.071Z,19.86
2023-03-30T12:34:28.626Z,20.06
2023-03-30T12:37:05.382Z,20.12
2023-03-30T12:39:51.409Z,20.50
2023-03-30T12:42:34.299Z,20.56
2023-03-30T12:45:23.825Z,20.28
2023-03-30T12:48:09.064Z,20.01
2023-03-30T12:51:22.734Z,19.77
2023-03-30T12:54:24.801Z,19.59
2023-03-30T12:57:11.135Z,19.49
2023-03-30T13:00:15.875Z,19.44
2023-03-30T13:03:28.587Z,19.06
2023-03-30T13:05:59.935Z,18.51
2023-03-30T13:08:41.659Z,18.22
2023-03-30T13:11:20.195Z,18.13
2023-03-30T13:13:59.093Z,18.08
2023-03-30T13:16:51.298Z,17.76
2023-03-30T13:19:32.254Z,17.70
2023-03-30T13:22:28.646Z,17.79
2023-03-30T13:25:20.299Z,17.75
2023-03-30T13:27:51.289Z,17.62
2023-03-30T13:30:18.991Z,17.63
2023-03-30T13:33:22.554Z,17.74
2023-03-30T13:36:06.654Z,17.85
2023-03-30T13:38:51.506Z,17.97
2023-03-30T13:41:18.575Z,18.19
2023-03-30T13:44:17.678Z,18.52
2023-03-30T13:46:50.690Z,18.58
2023-03-30T13:49:51.171Z,18.68
2023-03-30T13:52:31.116Z,18.60
2023-03-30T13:54:59.370Z,18.39
2023-03-30T13:57:39.937Z,17.99
2023-03-30T14:00:45.166Z,17.57
2023-03-30T14:03:44.442Z,17.00
2023-03-30T14:06:14.849Z,16.33
2023-03-30T14:08:47.741Z,15.89
2023-03-30T14:11:19.973Z,15.79
2023-03-30T14:13:52.477Z,16.02
2023-03-30T14:16:38.753Z,16.50
2023-03-30T14:19:25.916Z,16.83
2023-03-30T14:22:05.220Z,16.85
2023-03-30T14:24:34.232Z,16.95
2023-03-30T14:27:15.499Z,16.94
2023-03-30T14:29:48.194Z,16.91
2023-03-30T14:32:19.274Z,16.78
2023-03-30T14:34:49.458Z,16.97
2023-03-30T14:37:19.677Z,17.11
2023-03-30T14:39:53.689Z,17.30
2023-03-30T14:42:27.716Z,17.33
2023-03-30T14:44:57.064Z,17.37
2023-03-30T14:47:27.201Z,17.33
2023-03-30T14:50:02.410Z,17.12
2023-03-30T14:52:40.744Z,16.89
2023-03-30T14:55:18.953Z,16.87
2023-03-30T14:57:48.878Z,16.83
2023-03-30T15:00:22.830Z,16.74
2023-03-30T15:02:59.924Z,16.67
2023-03-30T15:05:37.425Z,16.71
2023-03-30T15:08:06.147Z,16.83
2023-03-30T15:10:43.438Z,16.94
2023-03-30T15:13:29.018Z,16.64
2023-03-30T15:15:58.892Z,16.40
2023-03-30T15:18:29.192Z,16.24
2023-03-30T15:20:57.826Z,16.27
2023-03-30T15:23:31.695Z,16.36
2023-03-30T15:26:01.567Z,16.44
2023-03-30T15:28:35.177Z,16.41
2023-03-30T15:31:02.718Z,16.27
2023-03-30T15:33:38.899Z,16.21
2023-03-30T15:36:13.348Z,16.57
2023-03-30T15:38:49.823Z,16.57
2023-03-30T15:41:20.861Z,16.38
2023-03-30T15:44:11.144Z,16.25
2023-03-30T15:46:40.305Z,16.22
2023-03-30T15:49:09.687Z,16.15
2023-03-30T15:51:43.791Z,16.24
2023-03-30T15:54:21.433Z,16.38
2023-03-30T15:57:08.404Z,16.59
2023-03-30T15:59:46.808Z,16.95
2023-03-30T16:02:17.019Z,17.19
2023-03-30T16:04:44.299Z,17.20
2023-03-30T16:07:25.749Z,17.05
2023-03-30T16:09:53.682Z,16.89
2023-03-30T16:12:26.067Z,16.79
2023-03-30T16:14:54.535Z,16.84
2023-03-30T16:17:21.738Z,16.87
2023-03-30T16:19:49.098Z,16.71
2023-03-30T16:22:16.777Z,16.69
2023-03-30T16:24:44.002Z,17.08
2023-03-30T16:27:13.040Z,17.16
2023-03-30T16:29:40.525Z,16.94
2023-03-30T16:32:08.032Z,16.69
2023-03-30T16:34:35.244Z,16.57
2023-03-30T16:37:02.519Z,16.52
2023-03-30T16:39:30.654Z,16.40
2023-03-30T16:41:57.944Z,16.14
2023-03-30T16:44:26.053Z,15.97
2023-03-30T16:46:53.229Z,16.14
2023-03-30T16:49:26.203Z,16.23
2023-03-30T16:51:57.539Z,16.10
2023-03-30T16:54:32.152Z,16.01
2023-03-30T16:57:03.544Z,15.92
2023-03-30T16:59:32.341Z,15.81
2023-03-30T17:02:00.453Z,15.61
2023-03-30T17:04:28.175Z,15.43
2023-03-30T17:06:55.642Z,15.30
2023-03-30T17:09:23.366Z,15.21
2023-03-30T17:11:51.007Z,15.15
2023-03-30T17:14:20.543Z,15.08
2023-03-30T17:16:47.608Z,15.07
2023-03-30T17:19:15.051Z,15.15
2023-03-30T17:21:46.009Z,15.34
2023-03-30T17:24:15.319Z,15.31
2023-03-30T17:26:42.902Z,15.20
2023-03-30T17:29:10.842Z,15.07
2023-03-30T17:31:45.713Z,14.92
2023-03-30T17:34:13.732Z,14.81
2023-03-30T17:36:40.759Z,14.76
2023-03-30T17:39:10.348Z,14.80
2023-03-30T17:41:38.301Z,14.77
2023-03-30T17:44:05.566Z,14.72
2023-03-30T17:46:32.947Z,14.68
2023-03-30T17:49:00.910Z,14.58
2023-03-30T17:51:27.920Z,14.53
2023-03-30T17:53:55.209Z,14.46
2023-03-30T17:56:22.386Z,14.36
2023-03-30T17:58:49.661Z,14.29
2023-03-30T18:01:16.906Z,14.22
2023-03-30T18:03:44.773Z,14.18
2023-03-30T18:06:12.894Z,14.15
2023-03-30T18:08:40.639Z,14.14
2023-03-30T18:11:08.067Z,14.12
2023-03-30T18:13:36.053Z,14.10
2023-03-30T18:16:03.477Z,14.11
2023-03-30T18:18:31.961Z,14.13
2023-03-30T18:21:05.457Z,14.13
2023-03-30T18:23:34.437Z,14.12
2023-03-30T18:26:08.392Z,14.11
2023-03-30T18:28:40.504Z,14.11
2023-03-30T18:31:08.852Z,14.08
2023-03-30T18:33:36.272Z,14.08
2023-03-30T18:36:05.268Z,14.08
2023-03-30T18:38:33.535Z,14.06
2023-03-30T18:41:01.542Z,14.05
2023-03-30T18:43:29.179Z,14.02
2023-03-30T18:46:01.472Z,13.99
2023-03-30T18:48:29.679Z,13.96
2023-03-30T18:50:57.339Z,13.89
2023-03-30T18:53:27.964Z,13.82
2023-03-30T18:55:58.746Z,13.76
2023-03-30T18:58:29.126Z,13.72
2023-03-30T19:00:56.987Z,13.69
2023-03-30T19:03:27.995Z,13.66
2023-03-30T19:05:55.332Z,13.61
2023-03-30T19:08:25.408Z,13.56
2023-03-30T19:10:55.855Z,13.51
2023-03-30T19:13:24.737Z,13.45
2023-03-30T19:15:53.227Z,13.42
2023-03-30T19:18:21.341Z,13.38
2023-03-30T19:20:50.195Z,13.37
2023-03-30T19:23:18.234Z,13.37
2023-03-30T19:25:46.096Z,13.36
2023-03-30T19:28:14.680Z,13.34
2023-03-30T19:30:42.646Z,13.32
2023-03-30T19:33:15.272Z,13.34
2023-03-30T19:35:44.883Z,13.33
2023-03-30T19:38:13.501Z,13.28
2023-03-30T19:40:42.179Z,13.22
2023-03-30T19:43:10.576Z,13.17
2023-03-30T19:45:39.049Z,13.12
2023-03-30T19:48:07.782Z,13.05
2023-03-30T19:50:35.122Z,13.00
2023-03-30T19:53:02.262Z,12.98
2023-03-30T19:55:29.598Z,12.96
2023-03-30T19:57:56.587Z,12.93
2023-03-30T20:00:24.623Z,12.87
2023-03-30T20:02:55.037Z,12.85
2023-03-30T20:05:24.608Z,12.80
2023-03-30T20:07:52.187Z,12.74
2023-03-30T20:10:25.903Z,12.68
2023-03-30T20:12:53.623Z,12.65
2023-03-30T20:15:22.921Z,12.61
2023-03-30T20:17:50.176Z,12.59
2023-03-30T20:20:22.771Z,12.56
2023-03-30T20:22:53.406Z,12.51
2023-03-30T20:25:22.144Z,12.49
2023-03-30T20:27:49.595Z,12.46
2023-03-30T20:30:17.114Z,12.42
2023-03-30T20:32:48.439Z,12.40
2023-03-30T20:35:24.187Z,12.35
2023-03-30T20:37:51.508Z,12.34
2023-03-30T20:40:18.913Z,12.31
2023-03-30T20:42:48.233Z,12.27
2023-03-30T20:45:17.754Z,12.26
2023-03-30T20:47:51.486Z,12.23
2023-03-30T20:50:18.765Z,12.23
2023-03-30T20:52:46.503Z,12.22
2023-03-30T20:55:13.904Z,12.20
2023-03-30T20:57:41.039Z,12.18
2023-03-30T21:00:09.617Z,12.16
2023-03-30T21:02:37.384Z,12.15
2023-03-30T21:05:05.091Z,12.13
2023-03-30T21:07:32.176Z,12.10
2023-03-30T21:09:59.410Z,12.08
2023-03-30T21:12:26.469Z,12.06
2023-03-30T21:14:53.997Z,12.06
2023-03-30T21:17:21.864Z,12.03
2023-03-30T21:19:48.899Z,12.00
2023-03-30T21:22:17.984Z,11.97
2023-03-30T21:24:47.478Z,11.95
2023-03-30T21:27:14.590Z,11.94
2023-03-30T21:29:41.648Z,11.93
2023-03-30T21:32:08.703Z,11.91
2023-03-30T21:34:35.799Z,11.86
2023-03-30T21:37:03.699Z,11.82
2023-03-30T21:39:30.843Z,11.78
2023-03-30T21:41:58.170Z,11.75
2023-03-30T21:44:25.657Z,11.73
2023-03-30T21:46:52.797Z,11.71
2023-03-30T21:49:19.823Z,11.67
2023-03-30T21:51:46.984Z,11.67
2023-03-30T21:54:14.104Z,11.68
2023-03-30T21:56:41.443Z,11.66
2023-03-30T21:59:09.713Z,11.64
2023-03-30T22:01:36.897Z,11.64
2023-03-30T22:04:06.139Z,11.61
2023-03-30T22:06:33.476Z,11.61
2023-03-30T22:09:00.709Z,11.58
2023-03-30T22:11:27.897Z,11.57
2023-03-30T22:13:55.725Z,11.57
2023-03-30T22:16:32.239Z,11.55
2023-03-30T22:18:59.615Z,11.52
2023-03-30T22:21:34.627Z,11.55
2023-03-30T22:24:05.353Z,11.59
2023-03-30T22:26:33.106Z,11.55
2023-03-30T22:29:00.598Z,11.52
2023-03-30T22:31:28.532Z,11.50
2023-03-30T22:33:56.455Z,11.48
2023-03-30T22:36:29.942Z,11.46
2023-03-30T22:38:58.828Z,11.46
2023-03-30T22:41:26.631Z,11.46
2023-03-30T22:43:56.663Z,11.44
2023-03-30T22:46:26.308Z,11.45
2023-03-30T22:48:55.681Z,11.44
2023-03-30T22:51:26.154Z,11.45
2023-03-30T22:53:59.416Z,11.45
2023-03-30T22:56:30.291Z,11.49
2023-03-30T22:58:59.162Z,11.53
2023-03-30T23:01:29.249Z,11.59
2023-03-30T23:03:59.510Z,11.63
2023-03-30T23:06:27.410Z,11.69
2023-03-30T23:08:54.697Z,11.75
2023-03-30T23:11:21.730Z,11.80
2023-03-30T23:13:49.397Z,11.84
2023-03-30T23:16:16.564Z,11.88
2023-03-30T23:18:43.668Z,11.92
2023-03-30T23:21:11.479Z,11.94
2023-03-30T23:23:38.924Z,11.97
2023-03-30T23:26:10.087Z,11.98
2023-03-30T23:28:39.892Z,11.99
2023-03-30T23:31:17.696Z,12.02
2023-03-30T23:33:45.865Z,12.02
2023-03-30T23:36:14.149Z,12.01
2023-03-30T23:38:42.121Z,12.03
2023-03-30T23:41:12.748Z,12.02
2023-03-30T23:43:40.521Z,12.02
2023-03-30T23:46:07.920Z,12.01
2023-03-30T23:48:35.760Z,12.03
2023-03-30T23:51:03.039Z,12.03
2023-03-30T23:53:30.568Z,12.01
2023-03-30T23:55:58.335Z,12.00
2023-03-30T23:58:25.949Z,11.98
